1950 Tropical Cyclone NOT_NAMED (1950026S12129)


IBTrACS version v04r00. Visit IBTrACS website for data access.
Please direct all questions to the IBTrACS Q and A forum

Storm track - Intensity - Wind Radii - Intensity Data - Source Data - All data

Summary Information

Storm ID 1950026S12129
Start Jan 25 23Z
Landfall Jan 27 15Z, Jan 30 03Z
Max Intensity 45 kt (Jan 30 00Z), 990 mb (Jan 30 00Z)
End Feb 1 01Z
ATCF IDs ,SH081950
Track status Best track data.

Storm track plot

Map of storm track

Intensity plots

Map of storm track

Radial wind information

No radial wind information for this storm


Position and Intensity Table

BASIN ISO_TIME_________ NATURE LAT LON WMO PRES BOM PRES DS824 WIND DS824 PRES
degrees north degrees east mb mb kts mb
SI 1950-01-25 23:30:00 NR -12.30 129.00 1002 1002
SI 1950-01-26 00:00:00 TS -12.31 129.00 25 1002
SI 03:00:00 NR -12.43 129.01
SI 06:00:00 NR -12.54 129.03
SI 09:00:00 NR -12.66 129.03
SI 12:00:00 NR -12.79 129.04
SI 15:00:00 NR -12.95 129.04
SI 18:00:00 NR -13.12 129.03
SI 21:00:00 NR -13.31 129.02
SI 23:00:00 NR -13.37 129.02
SI 23:30:00 NR -13.36 129.02 1000 1000
SI 1950-01-27 00:00:00 TS -13.33 129.01
SI 03:00:00 TS -13.66 128.90
SI 06:00:00 TS -14.03 128.75
SI 09:00:00 TS -14.40 128.56
SI 11:00:00 TS -14.64 128.42
SI 12:00:00 TS -14.76 128.34
SI 13:00:00 TS -14.87 128.26 1000 1000
SI 15:00:00 TS -15.09 128.09 999
SI 18:00:00 TS -15.41 127.83 998
SI 21:00:00 TS -15.69 127.56 997
SI 23:00:00 TS -15.87 127.37 997
SI 1950-01-28 00:00:00 TS -15.93 127.33 997 35 997
SI 01:00:00 TS -16.05 127.19 997 997
SI 03:00:00 TS -16.22 127.00
SI 06:00:00 TS -16.46 126.71
SI 09:00:00 TS -16.67 126.40
SI 11:00:00 TS -16.79 126.18
SI 12:00:00 TS -16.86 126.06
SI 15:00:00 TS -17.07 125.69
SI 18:00:00 TS -17.26 125.31
SI 20:30:00 TS -17.40 124.99 995 995
SI 21:00:00 TS -17.42 124.93 994
SI 23:00:00 TS -17.49 124.70 994
SI 1950-01-29 00:00:00 TS -17.49 124.60 994
SI 01:00:00 TS -17.48 124.51 994 994
SI 03:00:00 TS -17.40 124.36
SI 06:00:00 TS -17.21 124.19
SI 09:00:00 TS -17.02 124.03
SI 11:00:00 TS -16.89 123.93
SI 12:00:00 TS -16.84 123.87
SI 15:00:00 TS -16.70 123.67
SI 18:00:00 TS -16.61 123.47
SI 21:00:00 TS -16.55 123.27
SI 23:00:00 TS -16.57 123.16
SI 1950-01-30 00:00:00 TS -16.58 123.09 45 990
SI 01:00:00 TS -16.63 123.07 990 990
SI 03:00:00 TS -16.75 123.00 990
SI 04:00:00 TS -16.83 122.98 990 990
SI 06:00:00 TS -17.02 122.94 991
SI 08:10:00 TS -17.26 122.90 993 993
SI 09:00:00 TS -17.36 122.89
SI 11:00:00 TS -17.59 122.86
SI 12:00:00 TS -17.71 122.84
SI 15:00:00 TS -18.05 122.81
SI 18:00:00 TS -18.39 122.83
SI 21:00:00 TS -18.73 122.91
SI 23:00:00 TS -18.95 123.02
SI 1950-01-31 00:00:00 TS -19.06 123.10
SI 01:00:00 TS -19.16 123.18 995 995
SI 03:00:00 TS -19.36 123.39
SI 06:00:00 TS -19.63 123.80
SI 09:00:00 TS -19.91 124.28
SI 11:00:00 TS -20.07 124.64
SI 12:00:00 TS -20.11 124.85
SI 15:00:00 TS -20.23 125.44
SI 18:00:00 TS -20.24 126.06
SI 21:00:00 NR -20.14 126.70
SI 23:00:00 NR -20.14 127.10
SI 1950-02-01 00:00:00 NR -19.96 127.32
SI 01:00:00 NR -20.00 127.50 998 998

Source Information

Agency Information
USA bsh081950.txt
TOKYO
CMA
HKO
NEWDELHI
REUNION
BOM IDCKMSTM0S.csv:Line=1578:unnamed
NADI
WELLINGTON
DS824 aus_area.dat:171:NOT NAMED
TD9636 cons_worldwide_trop_cyclone_18710101-19891231-006:Line=3547
TD9635
NEUMANN
MLC

All available IBTrACS Data

SEASON BASIN SUBBASIN ISO_TIME_________ NATURE LAT LON WMO PRES WMO AGENCY DIST2LAND LANDFALL IFLAG USA AGENCY USA ATCF_ID USA LAT USA LON USA SSHS BOM LAT BOM LON BOM PRES BOM PRES_METHOD DS824 LAT DS824 LON DS824 STAGE DS824 WIND DS824 PRES TD9636 LAT TD9636 LON TD9636 STAGE STORM SPEED STORM DIR
Year degrees north degrees east mb km km degrees north degrees east 1 degrees north degrees east mb degrees north degrees east kts mb degrees north degrees east kts degrees
1950 SI WA 1950-01-25 23:30:00 NR -12.30 129.00 1002 bom 132 132 ______O_______ -1 -12.30 129.00 1002 1 0
1950 SI WA 1950-01-26 00:00:00 TS -12.31 129.00 132 132 ______P__O____ -1 -12.32 129.00 -12.30 129.00 TC 25 1002 2 0
1950 SI WA 03:00:00 NR -12.43 129.01 137 131 ______P__P____ -1 -12.43 129.01 -12.50 128.94 TC 2 177
1950 SI WA 06:00:00 NR -12.54 129.03 131 123 ______P__P____ -1 -12.54 129.03 -12.70 128.89 TC 2 0
1950 SI WA 09:00:00 NR -12.66 129.03 123 116 ______P__P____ -1 -12.66 129.03 -12.90 128.83 TC 3 176
1950 SI WA 12:00:00 NR -12.79 129.04 116 109 ______P__P____ -1 -12.79 129.04 -13.10 128.78 TC 3 0
1950 SI WA 15:00:00 NR -12.95 129.04 109 97 ______P__P____ -1 -12.95 129.04 -13.30 128.72 TC 3 184
1950 SI WA 18:00:00 NR -13.12 129.03 97 89 ______P__P____ -1 -13.12 129.03 -13.50 128.67 TC 4 183
1950 SI WA 21:00:00 NR -13.31 129.02 89 87 ______P__P____ -1 -13.31 129.02 -13.70 128.61 TC 3 0
1950 SI WA 23:00:00 NR -13.37 129.02 87 87 ______P__PO___ -1 -13.46 129.00 -13.83 128.57 TC -13.00 129.10 7 1 0
1950 SI WA 23:30:00 NR -13.36 129.02 1000 bom 87 87 ______O__PP___ -1 -13.50 129.00 1000 -13.87 128.56 TC -13.07 129.07 7 2 332
1950 SI WA 1950-01-27 00:00:00 TS -13.33 129.01 89 85 O_____P__PP___ jtwc_sh SH081950 -13.20 129.00 -1 -13.54 129.00 -13.90 128.55 TC -13.15 129.04 7 6 201
1950 SI WA 03:00:00 TS -13.66 128.90 85 72 P_____P__PP___ SH081950 -13.60 128.87 -1 -13.79 128.96 -14.10 128.50 TC -13.59 128.87 7 7 200
1950 SI WA 06:00:00 TS -14.03 128.75 72 54 O_____P__PP___ jtwc_sh SH081950 -14.00 128.70 -1 -14.07 128.91 -14.30 128.44 TC -14.03 128.68 7 8 204
1950 SI WA 09:00:00 TS -14.40 128.56 54 24 P_____P__PP___ SH081950 -14.41 128.47 -1 -14.34 128.84 -14.50 128.38 TC -14.44 128.46 7 8 208
1950 SI WA 11:00:00 TS -14.64 128.42 24 10 P_____P__PO___ SH081950 -14.67 128.29 -1 -14.52 128.78 -14.63 128.35 TC -14.70 128.30 7 8 211
1950 SI WA 12:00:00 TS -14.76 128.34 10 10 O_____P__PP___ jtwc_sh SH081950 -14.80 128.20 -1 -14.61 128.74 -14.70 128.33 TC -14.82 128.21 7 8 213
1950 SI WA 13:00:00 TS -14.87 128.26 1000 bom 15 0 P_____O__PP___ SH081950 -14.92 128.11 -1 -14.70 128.70 1000 -14.77 128.31 TC -14.94 128.12 7 8 215
1950 SI WA 15:00:00 TS -15.09 128.09 0 0 P_____P__PP___ SH081950 -15.16 127.91 -1 -14.87 128.64 999 -14.90 128.27 TC -15.18 127.92 7 8 218
1950 SI WA 18:00:00 TS -15.41 127.83 0 0 O_____P__PP___ jtwc_sh SH081950 -15.50 127.60 -1 -15.12 128.51 998 -15.10 128.21 TC -15.50 127.61 7 8 221
1950 SI WA 21:00:00 TS -15.69 127.56 0 0 P_____P__PP___ SH081950 -15.81 127.29 -1 -15.35 128.34 997 -15.30 128.16 TC -15.81 127.30 7 8 224
1950 SI WA 23:00:00 TS -15.87 127.37 0 0 P_____P__PO___ SH081950 -16.00 127.09 -1 -15.48 128.19 997 -15.43 128.12 TC -16.00 127.10 7 7 222
1950 SI WA 1950-01-28 00:00:00 TS -15.93 127.33 0 0 O_____P__OP___ jtwc_sh SH081950 -16.10 127.00 -1 -15.54 128.10 997 -15.50 128.10 TC 35 997 -16.10 127.01 7 8 224
1950 SI WA 01:00:00 TS -16.05 127.19 997 bom 0 0 P_____O__PP___ SH081950 -16.20 126.91 -1 -15.60 128.00 997 -15.52 127.99 TC -16.20 126.93 7 9 227
1950 SI WA 03:00:00 TS -16.22 127.00 0 0 P_____P__PP___ SH081950 -16.41 126.74 -1 -15.68 127.76 -15.55 127.77 TC -16.39 126.76 7 7 228
1950 SI WA 06:00:00 TS -16.46 126.71 0 0 O_____P__PP___ jtwc_sh SH081950 -16.70 126.50 -1 -15.77 127.32 -15.61 127.44 TC -16.67 126.52 7 7 233
1950 SI WA 09:00:00 TS -16.67 126.40 0 0 P_____P__PP___ SH081950 -16.96 126.26 -1 -15.81 126.81 -15.66 127.11 TC -16.93 126.27 7 7 237
1950 SI WA 11:00:00 TS -16.79 126.18 0 0 P_____P__PO___ SH081950 -17.12 126.09 -1 -15.83 126.44 -15.69 126.89 TC -17.10 126.10 7 8 239
1950 SI WA 12:00:00 TS -16.86 126.06 0 0 O_____P__PP___ jtwc_sh SH081950 -17.20 126.00 -1 -15.83 126.25 -15.71 126.78 TC -17.20 126.00 7 8 239
1950 SI WA 15:00:00 TS -17.07 125.69 0 0 P_____P__PP___ SH081950 -17.46 125.71 -1 -15.85 125.66 -15.76 126.45 TC -17.51 125.68 7 8 241
1950 SI WA 18:00:00 TS -17.26 125.31 0 0 O_____P__PP___ jtwc_sh SH081950 -17.70 125.40 -1 -15.87 125.07 -15.82 126.12 TC -17.77 125.37 7 8 244
1950 SI WA 20:30:00 TS -17.40 124.99 995 bom 0 0 P_____O__PP___ SH081950 -17.89 125.13 -1 -15.90 124.60 995 -15.86 125.84 TC -17.93 125.12 7 8 246
1950 SI WA 21:00:00 TS -17.42 124.93 0 0 P_____P__PP___ SH081950 -17.92 125.08 -1 -15.91 124.51 994 -15.87 125.79 TC -17.95 125.07 7 7 253
1950 SI WA 23:00:00 TS -17.49 124.70 0 0 P_____P__PO___ SH081950 -18.00 124.88 -1 -15.96 124.14 994 -15.90 125.57 TC -18.00 124.90 7 7 258
1950 SI WA 1950-01-29 00:00:00 TS -17.49 124.60 0 0 O_____P__PP___ jtwc_sh SH081950 -18.00 124.80 -1 -15.98 123.96 994 -15.92 125.46 TC -17.99 124.83 7 5 273
1950 SI WA 01:00:00 TS -17.48 124.51 994 bom 0 0 P_____O__PP___ SH081950 -17.98 124.73 -1 -16.00 123.80 994 -15.93 125.34 TC -17.96 124.78 7 5 292
1950 SI WA 03:00:00 TS -17.40 124.36 0 0 P_____P__PP___ SH081950 -17.86 124.63 -1 -16.02 123.52 -15.97 125.12 TC -17.85 124.67 7 5 310
1950 SI WA 06:00:00 TS -17.21 124.19 0 0 O_____P__PP___ jtwc_sh SH081950 -17.60 124.50 -1 -16.03 123.20 -16.02 124.79 TC -17.62 124.54 7 5 320
1950 SI WA 09:00:00 TS -17.02 124.03 0 0 P_____P__PP___ SH081950 -17.34 124.37 -1 -16.03 122.99 -16.06 124.46 TC -17.36 124.41 7 5 322
1950 SI WA 11:00:00 TS -16.89 123.93 0 0 P_____P__PO___ SH081950 -17.17 124.26 -1 -16.02 122.89 -16.10 124.24 TC -17.20 124.30 7 5 320
1950 SI WA 12:00:00 TS -16.84 123.87 0 0 O_____P__PP___ jtwc_sh SH081950 -17.10 124.20 -1 -16.02 122.86 -16.11 124.13 TC -17.13 124.22 7 5 309
1950 SI WA 15:00:00 TS -16.70 123.67 0 0 P_____P__PP___ SH081950 -16.92 123.96 -1 -16.02 122.79 -16.16 123.80 TC -16.93 123.97 7 4 301
1950 SI WA 18:00:00 TS -16.61 123.47 0 0 O_____P__PP___ jtwc_sh SH081950 -16.80 123.70 -1 -16.05 122.77 -16.21 123.46 TC -16.77 123.70 7 4 291
1950 SI WA 21:00:00 TS -16.55 123.27 21 15 P_____P__PP___ SH081950 -16.70 123.43 -1 -16.12 122.78 -16.25 123.13 TC -16.69 123.45 7 4 278
1950 SI WA 23:00:00 TS -16.57 123.16 15 10 P_____P__PO___ SH081950 -16.68 123.27 -1 -16.20 122.79 -16.28 122.91 TC -16.70 123.30 7 4 262
1950 SI WA 1950-01-30 00:00:00 TS -16.58 123.09 10 10 O_____P__OP___ jtwc_sh SH081950 -16.70 123.20 -1 -16.25 122.80 -16.30 122.80 TC 45 990 -16.73 123.24 7 3 233
1950 SI WA 01:00:00 TS -16.63 123.07 990 bom 10 0 P_____O___P___ SH081950 -16.73 123.15 -1 -16.30 122.80 990 4 TC -16.77 123.18 7 4 205
1950 SI WA 03:00:00 TS -16.75 123.00 0 0 P_____P___P___ SH081950 -16.84 123.08 -1 -16.42 122.79 990 TC -16.89 123.07 7 4 205
1950 SI WA 04:00:00 TS -16.83 122.98 990 bom 0 0 P_____O___P___ SH081950 -16.92 123.05 -1 -16.50 122.80 990 TC -16.97 123.02 7 6 193
1950 SI WA 06:00:00 TS -17.02 122.94 0 0 O_____P___P___ jtwc_sh SH081950 -17.10 123.00 -1 -16.72 122.83 991 TC -17.15 122.94 7 6 190
1950 SI WA 08:10:00 TS -17.26 122.90 993 bom 0 0 P_____O___P___ SH081950 -17.33 122.92 -1 -17.00 122.90 993 TC -17.38 122.86 7 7 189
1950 SI WA 09:00:00 TS -17.36 122.89 0 0 P_____P___P___ SH081950 -17.43 122.89 -1 -17.10 122.92 TC -17.47 122.84 7 7 187
1950 SI WA 11:00:00 TS -17.59 122.86 0 0 P_____P___O___ SH081950 -17.68 122.83 -1 -17.33 122.98 TC -17.70 122.80 7 7 187
1950 SI WA 12:00:00 TS -17.71 122.84 0 0 O_____P___P___ jtwc_sh SH081950 -17.80 122.80 -1 -17.44 123.01 TC -17.81 122.76 7 7 185
1950 SI WA 15:00:00 TS -18.05 122.81 0 0 P_____P___P___ SH081950 -18.15 122.72 -1 -17.77 123.13 TC -18.15 122.67 7 7 0
1950 SI WA 18:00:00 TS -18.39 122.83 0 0 O_____P___P___ jtwc_sh SH081950 -18.50 122.70 -1 -18.07 123.28 TC -18.51 122.63 7 7 172
1950 SI WA 21:00:00 TS -18.73 122.91 0 0 P_____P___P___ SH081950 -18.86 122.74 -1 -18.36 123.47 TC -18.87 122.69 7 7 162
1950 SI WA 23:00:00 TS -18.95 123.02 0 0 P_____P___O___ SH081950 -19.09 122.83 -1 -18.53 123.62 TC -19.10 122.80 7 7 151
1950 SI WA 1950-01-31 00:00:00 TS -19.06 123.10 0 0 O_____P___P___ jtwc_sh SH081950 -19.20 122.90 -1 -18.62 123.71 TC -19.22 122.87 7 8 144
1950 SI WA 01:00:00 TS -19.16 123.18 995 bom 0 0 P_____O___P___ SH081950 -19.31 122.98 -1 -18.70 123.80 995 TC -19.33 122.96 7 8 137
1950 SI WA 03:00:00 TS -19.36 123.39 0 0 P_____P___P___ SH081950 -19.51 123.18 -1 -18.85 124.01 TC -19.55 123.19 7 9 129
1950 SI WA 06:00:00 TS -19.63 123.80 0 0 O_____P___P___ jtwc_sh SH081950 -19.80 123.60 -1 -19.06 124.37 TC -19.87 123.61 7 10 123
1950 SI WA 09:00:00 TS -19.91 124.28 0 0 P_____P___P___ SH081950 -20.12 124.11 -1 -19.25 124.78 TC -20.14 124.13 7 11 119
1950 SI WA 11:00:00 TS -20.07 124.64 0 0 P_____P___O___ SH081950 -20.32 124.50 -1 -19.36 125.08 TC -20.30 124.50 7 11 111
1950 SI WA 12:00:00 TS -20.11 124.85 0 0 O_____P___P___ jtwc_sh SH081950 -20.40 124.70 -1 -19.42 125.23 TC -20.37 124.69 7 11 102
1950 SI WA 15:00:00 TS -20.23 125.44 0 0 P_____P___P___ SH081950 -20.58 125.30 -1 -19.57 125.72 TC -20.53 125.30 7 11 97
1950 SI WA 18:00:00 TS -20.24 126.06 0 0 O_____P___P___ jtwc_sh SH081950 -20.70 125.90 -1 -19.71 126.24 TC -20.65 125.92 7 12 86
1950 SI WA 21:00:00 NR -20.14 126.70 0 0 ______P___P___ SH081950 -1 -19.84 126.77 TC -20.75 126.57 7 12 84
1950 SI WA 23:00:00 NR -20.14 127.10 0 0 ______P___O___ SH081950 -1 -19.92 127.13 TC -20.80 127.00 7 12 73
1950 SI WA 1950-02-01 00:00:00 NR -19.96 127.32 0 0 ______P_______ -1 -19.96 127.32 7 12 70
1950 SI WA 01:00:00 NR -20.00 127.50 998 bom 0 ______O_______ -1 -20.00 127.50 998 7 11 103